Nagykanizsa, Hungary
Current Conditions -  °F | °C
As of 8:15 AM on Thursday 23 Oct 2014 (Local Time) from LHSM Reporting Station
Broken Clouds Broken Clouds  
Wind Chill: 45°   Ceiling: 2600
Heat Index: 45°   Visibility: 6mi
Dew Point: 41°   Wind: 2mph
Humidity: 87%   Direction: 280°W
Pressure: 29.74"   Gusts: NA
Location:  46.46°N, 16.99°E
Report Text: LHSM 230615Z 28002KT 9999 BKN026 07/05 Q1007 NOSIG
Loading
Personal Weather Stations






























Interactive Weather Map
Tropical Storm Tracking
New forecast layout! Learn more

10-Day Weather Forecast

Advertisements
Track Severe Weather on mobile